Time;durP1;ratioP1;P1;durP2;ratioP2;P2;SDS_P1;SDS_P2;PMS_P1;PMS_P2;Temp;Humidity;BMP_temperature;BMP_pressure;BME280_temperature;BME280_humidity;BME280_pressure;Samples;Min_cycle;Max_cycle;Signal;HPM_P1;HPM_P2
2023/12/13 00:02:00;;;;;;;5.68;1.80;;;27.60;66.00;;;;;;5036433;28;20420;-80
2023/12/13 00:04:27;;;;;;;5.63;1.58;;;27.60;66.20;;;;;;5033450;28;20052;-82
2023/12/13 00:06:58;;;;;;;4.90;1.38;;;27.70;65.30;;;;;;5014476;28;20377;-77
2023/12/13 00:09:26;;;;;;;5.28;1.20;;;27.70;64.80;;;;;;5010343;28;20089;-77
2023/12/13 00:11:53;;;;;;;9.07;1.73;;;27.80;64.90;;;;;;5012733;28;20026;-78
2023/12/13 00:14:22;;;;;;;4.68;1.15;;;27.90;64.60;;;;;;5025269;28;20030;-82
2023/12/13 00:16:51;;;;;;;4.07;1.30;;;28.00;64.20;;;;;;5015614;28;20048;-85
2023/12/13 00:19:20;;;;;;;8.30;1.52;;;28.00;64.10;;;;;;5008253;28;20380;-78
2023/12/13 00:21:48;;;;;;;6.78;1.60;;;28.10;64.10;;;;;;4997103;28;20026;-82
2023/12/13 00:24:15;;;;;;;7.03;1.95;;;28.10;64.20;;;;;;5002012;28;20388;-85
2023/12/13 00:26:43;;;;;;;7.28;1.80;;;28.10;64.70;;;;;;5018474;28;20056;-83
2023/12/13 00:29:11;;;;;;;8.77;1.83;;;28.20;64.40;;;;;;5036190;28;20037;-85
2023/12/13 00:31:38;;;;;;;6.00;1.50;;;28.20;64.70;;;;;;5028608;28;20785;-77
2023/12/13 00:34:05;;;;;;;5.88;1.83;;;28.20;65.00;;;;;;5024155;28;20046;-77
2023/12/13 00:36:36;;;;;;;10.82;1.73;;;28.30;65.20;;;;;;5021801;28;20021;-82
2023/12/13 00:39:03;;;;;;;10.65;2.17;;;28.30;65.40;;;;;;5018400;28;20032;-80
2023/12/13 00:41:31;;;;;;;8.30;2.00;;;28.30;65.20;;;;;;5016819;28;20080;-82
2023/12/13 00:43:58;;;;;;;11.27;2.15;;;28.30;65.20;;;;;;5018845;28;20029;-86
2023/12/13 00:46:26;;;;;;;11.00;1.80;;;28.30;65.00;;;;;;5020798;28;20029;-78
2023/12/13 00:48:54;;;;;;;8.30;1.90;;;28.30;65.90;;;;;;5037542;28;20032;-89
2023/12/13 00:51:23;;;;;;;7.45;2.08;;;28.30;65.90;;;;;;5018609;28;20022;-82
2023/12/13 00:53:50;;;;;;;9.00;2.00;;;28.30;65.70;;;;;;5026795;28;21914;-79
2023/12/13 00:56:18;;;;;;;8.15;1.80;;;28.30;65.60;;;;;;5037431;28;20029;-81
2023/12/13 00:58:47;;;;;;;5.85;1.73;;;28.30;64.80;;;;;;5016244;28;20026;-85
2023/12/13 01:01:16;;;;;;;8.05;1.73;;;28.30;65.10;;;;;;5011415;28;20030;-84
2023/12/13 01:03:43;;;;;;;9.35;2.40;;;28.20;64.80;;;;;;5015658;28;20401;-83
2023/12/13 01:06:11;;;;;;;7.22;2.00;;;28.10;65.00;;;;;;5015813;28;20044;-80
2023/12/13 01:08:38;;;;;;;6.72;2.20;;;28.00;64.90;;;;;;5015128;28;20038;-85
2023/12/13 01:11:10;;;;;;;5.45;1.58;;;28.10;65.00;;;;;;5001094;28;20073;-82
2023/12/13 01:13:38;;;;;;;6.60;1.90;;;28.20;64.80;;;;;;5008093;28;20033;-80
2023/12/13 01:16:06;;;;;;;10.05;2.10;;;28.20;65.10;;;;;;5017593;28;20030;-83
2023/12/13 01:18:33;;;;;;;7.30;1.80;;;28.20;64.80;;;;;;5028327;28;20477;-84
2023/12/13 01:21:01;;;;;;;5.68;1.73;;;28.10;64.50;;;;;;5020130;28;20013;-78
2023/12/13 01:23:28;;;;;;;7.75;2.00;;;28.00;64.30;;;;;;5009744;28;20030;-83
2023/12/13 01:25:55;;;;;;;8.25;1.95;;;27.90;64.50;;;;;;5018377;28;20557;-78
2023/12/13 01:28:23;;;;;;;9.95;2.38;;;27.80;64.90;;;;;;5019746;28;20436;-77
2023/12/13 01:30:52;;;;;;;9.75;2.17;;;27.80;65.20;;;;;;5014614;28;20509;-83
2023/12/13 01:33:20;;;;;;;9.82;2.10;;;27.70;65.60;;;;;;5022930;28;20021;-82
2023/12/13 01:35:47;;;;;;;10.38;2.28;;;27.80;66.20;;;;;;5025775;28;20033;-78
2023/12/13 01:38:14;;;;;;;6.57;1.90;;;27.80;66.20;;;;;;5029849;28;20021;-80
2023/12/13 01:40:50;;;;;;;9.57;1.92;;;27.90;65.80;;;;;;5016548;28;20033;-85
2023/12/13 01:43:24;;;;;;;11.50;2.30;;;28.00;65.70;;;;;;5007789;28;20022;-84
2023/12/13 01:45:56;;;;;;;10.38;2.20;;;28.00;65.50;;;;;;5007591;28;20432;-88
2023/12/13 01:48:29;;;;;;;7.20;1.52;;;28.00;65.40;;;;;;5011984;28;20026;-86
2023/12/13 01:50:57;;;;;;;8.57;2.00;;;28.00;65.50;;;;;;5025972;28;20044;-87
2023/12/13 01:53:27;;;;;;;6.90;2.00;;;28.00;65.50;;;;;;5035201;28;20100;-80
2023/12/13 01:55:55;;;;;;;6.75;1.70;;;27.90;65.60;;;;;;5027896;28;20037;-85
2023/12/13 01:58:23;;;;;;;5.75;1.77;;;27.90;65.60;;;;;;5015059;28;20018;-84
2023/12/13 02:00:52;;;;;;;7.32;1.70;;;27.90;65.80;;;;;;5013988;28;20503;-84
2023/12/13 02:03:21;;;;;;;9.70;1.95;;;27.90;65.80;;;;;;4996512;28;20076;-85
2023/12/13 02:05:52;;;;;;;11.27;2.05;;;27.90;66.20;;;;;;5016705;28;20542;-86
2023/12/13 02:08:19;;;;;;;7.43;1.70;;;28.00;66.40;;;;;;5017374;28;20069;-85
2023/12/13 02:10:47;;;;;;;11.90;1.75;;;28.00;66.50;;;;;;5015471;28;20070;-83
2023/12/13 02:13:17;;;;;;;11.15;1.85;;;28.10;66.30;;;;;;5030835;28;20037;-80
2023/12/13 02:15:46;;;;;;;6.13;1.55;;;28.20;66.00;;;;;;5023564;28;20030;-87
2023/12/13 02:18:16;;;;;;;6.28;1.55;;;28.30;65.90;;;;;;5014112;28;20493;-84
2023/12/13 02:20:44;;;;;;;9.70;1.90;;;28.20;65.80;;;;;;5023949;28;20022;-88
2023/12/13 02:23:12;;;;;;;6.20;1.80;;;28.20;65.90;;;;;;5015497;28;20049;-79
2023/12/13 02:25:57;;;;;;;10.68;1.92;;;28.20;66.00;;;;;;5019444;28;20128;-85
2023/12/13 02:28:25;;;;;;;8.70;1.90;;;28.20;66.10;;;;;;5015489;28;20029;-80
2023/12/13 02:30:55;;;;;;;6.10;1.75;;;28.10;65.90;;;;;;5027250;28;20042;-86
2023/12/13 02:33:30;;;;;;;10.93;2.17;;;28.10;65.80;;;;;;5016041;28;20048;-90
2023/12/13 02:36:03;;;;;;;8.27;1.90;;;28.20;66.10;;;;;;5027621;28;20087;-87
2023/12/13 02:38:31;;;;;;;7.82;1.92;;;28.20;66.10;;;;;;5035502;28;20499;-93
2023/12/13 02:40:58;;;;;;;8.70;1.98;;;28.10;66.00;;;;;;5031782;28;20018;-84
2023/12/13 02:43:30;;;;;;;8.38;2.20;;;28.10;65.90;;;;;;5015639;28;20035;-87
2023/12/13 02:45:58;;;;;;;12.20;2.13;;;28.10;66.30;;;;;;5019050;28;20025;-85
2023/12/13 02:48:27;;;;;;;9.88;1.90;;;28.10;66.10;;;;;;5014360;28;20030;-89
2023/12/13 02:50:57;;;;;;;6.60;1.60;;;28.00;66.00;;;;;;5014036;28;20049;-86
2023/12/13 02:53:26;;;;;;;14.30;2.25;;;28.00;66.30;;;;;;5025143;28;20021;-89
2023/12/13 02:55:53;;;;;;;9.50;2.00;;;28.10;66.30;;;;;;5014627;28;20029;-82
2023/12/13 02:58:21;;;;;;;10.00;2.00;;;28.10;66.10;;;;;;5016186;28;20025;-81
2023/12/13 03:00:50;;;;;;;9.27;2.05;;;28.20;66.10;;;;;;5016204;28;20030;-81
2023/12/13 03:03:17;;;;;;;9.02;1.80;;;28.30;66.20;;;;;;5019441;28;20044;-81
2023/12/13 03:05:45;;;;;;;8.30;1.95;;;28.20;66.20;;;;;;5014714;28;20034;-91
2023/12/13 03:08:16;;;;;;;7.88;1.70;;;28.20;66.30;;;;;;5031667;28;20036;-86
2023/12/13 03:10:45;;;;;;;8.27;2.08;;;28.20;66.60;;;;;;5020779;28;20038;-90
2023/12/13 03:13:12;;;;;;;7.32;1.83;;;28.10;66.60;;;;;;5014892;28;20536;-86
2023/12/13 03:15:40;;;;;;;11.13;2.35;;;28.10;66.70;;;;;;5015100;28;20061;-87
2023/12/13 03:18:07;;;;;;;8.77;2.10;;;28.10;66.40;;;;;;5018711;28;20585;-89
2023/12/13 03:20:36;;;;;;;9.98;2.00;;;28.10;66.40;;;;;;5017796;28;20137;-88
2023/12/13 03:23:07;;;;;;;9.25;2.03;;;28.10;66.70;;;;;;5015231;28;20053;-85
2023/12/13 03:25:34;;;;;;;8.40;2.25;;;28.10;66.80;;;;;;5019944;28;20030;-91
2023/12/13 03:28:03;;;;;;;7.05;2.10;;;28.10;66.60;;;;;;5020062;28;20389;-86
2023/12/13 03:30:30;;;;;;;10.23;2.15;;;28.20;66.30;;;;;;5027574;28;20069;-86
2023/12/13 03:32:58;;;;;;;7.90;2.28;;;28.20;65.80;;;;;;5024980;28;20021;-82
2023/12/13 03:35:25;;;;;;;8.75;2.25;;;28.30;66.00;;;;;;5012538;28;20030;-85
2023/12/13 03:37:54;;;;;;;9.07;2.50;;;28.30;66.20;;;;;;5014392;28;20018;-85
2023/12/13 03:40:21;;;;;;;9.85;2.90;;;28.30;66.30;;;;;;5025225;28;20056;-81
2023/12/13 03:42:48;;;;;;;8.98;2.63;;;28.30;65.40;;;;;;5033361;28;20520;-83
2023/12/13 03:45:16;;;;;;;7.68;2.15;;;28.40;65.50;;;;;;5015682;28;20473;-83
2023/12/13 03:47:44;;;;;;;10.80;2.75;;;28.40;65.50;;;;;;5013887;28;20056;-85
2023/12/13 03:50:11;;;;;;;8.07;2.60;;;28.50;65.30;;;;;;5020116;28;20030;-85
2023/12/13 03:52:39;;;;;;;8.25;2.40;;;28.50;65.20;;;;;;5014874;28;20070;-83
2023/12/13 03:55:07;;;;;;;8.52;2.35;;;28.50;65.00;;;;;;5015423;28;20430;-79
2023/12/13 03:57:34;;;;;;;12.55;2.60;;;28.50;65.10;;;;;;5009263;28;20209;-84
2023/12/13 04:00:02;;;;;;;9.95;2.40;;;28.60;65.00;;;;;;5011125;28;20339;-80
2023/12/13 04:02:29;;;;;;;9.48;2.55;;;28.60;64.90;;;;;;5019136;28;20033;-84
2023/12/13 04:04:56;;;;;;;9.43;2.60;;;28.60;64.80;;;;;;5013961;28;20520;-83
2023/12/13 04:07:24;;;;;;;9.88;2.83;;;28.70;64.50;;;;;;5013641;28;20018;-81
2023/12/13 04:09:51;;;;;;;11.57;2.95;;;28.60;64.40;;;;;;5011251;28;20033;-81
2023/12/13 04:12:21;;;;;;;9.98;2.42;;;28.70;64.30;;;;;;5011584;28;20531;-85
2023/12/13 04:14:49;;;;;;;8.05;2.40;;;28.70;64.20;;;;;;5009893;28;20026;-84
2023/12/13 04:17:16;;;;;;;8.93;2.80;;;28.70;64.10;;;;;;5012862;28;20497;-81
2023/12/13 04:19:43;;;;;;;6.40;2.60;;;28.80;63.90;;;;;;5012066;28;20045;-83
2023/12/13 04:22:11;;;;;;;13.57;2.70;;;28.80;63.90;;;;;;5022692;28;20507;-86
2023/12/13 04:24:38;;;;;;;9.80;2.75;;;28.80;63.70;;;;;;5026489;28;20048;-88
2023/12/13 04:27:06;;;;;;;13.10;2.85;;;28.70;64.10;;;;;;5025926;28;20359;-81
2023/12/13 04:29:33;;;;;;;10.63;2.65;;;28.70;64.30;;;;;;5029583;28;20030;-82
2023/12/13 04:32:01;;;;;;;10.55;3.03;;;28.80;64.10;;;;;;5029627;28;20037;-84
2023/12/13 04:34:31;;;;;;;10.98;2.63;;;28.80;64.20;;;;;;5037637;28;20392;-82
2023/12/13 04:36:58;;;;;;;12.40;2.35;;;28.80;64.00;;;;;;5045449;28;20079;-84
2023/12/13 04:39:28;;;;;;;9.25;2.72;;;28.80;63.80;;;;;;5048209;28;20384;-85
2023/12/13 04:41:55;;;;;;;12.82;2.72;;;28.80;63.60;;;;;;5025020;28;20147;-80
2023/12/13 04:44:27;;;;;;;15.35;2.85;;;28.90;63.60;;;;;;5024258;28;20028;-80
2023/12/13 04:46:58;;;;;;;12.40;2.85;;;28.90;63.50;;;;;;5043367;28;20021;-84
2023/12/13 04:49:26;;;;;;;12.45;2.38;;;28.90;63.50;;;;;;5042989;28;20093;-80
2023/12/13 04:51:53;;;;;;;12.60;2.97;;;28.90;63.50;;;;;;5033547;28;20080;-82
2023/12/13 04:54:21;;;;;;;9.48;2.60;;;28.80;63.40;;;;;;5019145;28;20018;-85
2023/12/13 04:56:48;;;;;;;11.50;2.20;;;28.90;63.50;;;;;;5015401;28;20080;-80
2023/12/13 04:59:15;;;;;;;10.52;3.05;;;28.90;63.30;;;;;;5020715;28;20032;-79
2023/12/13 05:01:43;;;;;;;10.95;2.60;;;28.90;62.90;;;;;;5016624;28;20053;-85
2023/12/13 05:04:10;;;;;;;10.25;2.20;;;28.90;62.80;;;;;;5016634;28;20100;-81
2023/12/13 05:06:37;;;;;;;8.40;2.10;;;29.00;62.80;;;;;;5030204;28;20057;-81
2023/12/13 05:09:05;;;;;;;8.68;2.22;;;29.00;62.70;;;;;;5013959;28;20021;-81
2023/12/13 05:11:32;;;;;;;10.70;2.53;;;28.90;62.70;;;;;;5019357;28;20022;-82
2023/12/13 05:13:59;;;;;;;11.00;2.28;;;28.90;62.60;;;;;;5015149;28;20071;-81
2023/12/13 05:16:27;;;;;;;12.30;3.00;;;28.90;62.50;;;;;;5014764;28;20148;-81
2023/12/13 05:18:54;;;;;;;9.63;2.15;;;28.80;62.40;;;;;;5022819;28;20014;-85
2023/12/13 05:21:21;;;;;;;16.63;2.50;;;28.80;62.70;;;;;;5016808;28;20021;-80
2023/12/13 05:23:49;;;;;;;13.07;2.33;;;28.90;62.40;;;;;;5023790;28;20504;-82
2023/12/13 05:26:16;;;;;;;13.88;2.55;;;29.00;62.30;;;;;;5030666;28;20025;-80
2023/12/13 05:28:44;;;;;;;7.70;1.90;;;29.00;62.30;;;;;;5023872;28;20092;-82
2023/12/13 05:31:22;;;;;;;6.97;1.83;;;29.00;62.20;;;;;;5031298;28;20033;-80
2023/12/13 05:33:49;;;;;;;11.52;2.40;;;29.10;62.20;;;;;;5033278;28;20021;-81
2023/12/13 05:36:19;;;;;;;15.55;2.45;;;29.10;62.00;;;;;;5031817;28;20030;-82
2023/12/13 05:38:46;;;;;;;8.82;2.30;;;29.20;62.00;;;;;;5024174;28;20362;-79
2023/12/13 05:41:14;;;;;;;5.80;1.98;;;29.20;61.80;;;;;;5017386;28;20022;-80
2023/12/13 05:43:41;;;;;;;9.43;2.47;;;29.30;61.70;;;;;;5027348;28;20025;-80
2023/12/13 05:46:09;;;;;;;10.07;2.10;;;29.30;61.50;;;;;;5024395;28;20485;-81
2023/12/13 05:48:36;;;;;;;9.07;2.20;;;29.30;61.50;;;;;;5013069;28;20037;-79
2023/12/13 05:51:03;;;;;;;13.68;2.58;;;29.30;61.70;;;;;;5013258;28;20049;-79
2023/12/13 05:53:33;;;;;;;9.63;2.33;;;29.30;61.60;;;;;;5014277;28;20049;-81
2023/12/13 05:56:01;;;;;;;8.48;2.47;;;29.10;61.60;;;;;;5010111;28;20424;-79
2023/12/13 05:58:29;;;;;;;13.20;2.80;;;29.00;61.50;;;;;;5018014;28;20025;-79
2023/12/13 06:00:57;;;;;;;10.07;2.20;;;28.90;61.90;;;;;;5011500;28;20034;-78
2023/12/13 06:03:25;;;;;;;7.95;2.08;;;28.80;62.30;;;;;;5017463;28;20038;-80
2023/12/13 06:05:54;;;;;;;12.10;2.33;;;28.80;62.40;;;;;;5027893;28;20394;-80
2023/12/13 06:08:21;;;;;;;10.00;2.65;;;28.80;62.50;;;;;;5013176;28;20028;-80
2023/12/13 06:10:49;;;;;;;10.40;2.65;;;28.70;62.90;;;;;;5019935;28;20046;-80
2023/12/13 06:13:19;;;;;;;10.45;2.60;;;28.60;63.10;;;;;;5015794;28;20049;-81
2023/12/13 06:15:47;;;;;;;15.00;3.08;;;28.50;63.10;;;;;;5019943;28;20109;-79
2023/12/13 06:18:15;;;;;;;11.55;2.25;;;28.30;63.40;;;;;;5016425;28;20029;-79
2023/12/13 06:20:42;;;;;;;9.70;2.70;;;28.30;63.60;;;;;;5016387;28;20509;-82
2023/12/13 06:23:10;;;;;;;11.73;2.63;;;28.30;64.00;;;;;;5019874;28;20148;-81
2023/12/13 06:25:37;;;;;;;13.52;2.53;;;28.20;64.40;;;;;;5013756;28;20045;-79
2023/12/13 06:28:05;;;;;;;9.05;2.70;;;28.30;64.40;;;;;;5017323;28;20025;-82
2023/12/13 06:30:32;;;;;;;9.65;2.30;;;28.10;64.60;;;;;;5013450;28;20123;-79
2023/12/13 06:32:59;;;;;;;11.45;2.53;;;28.10;64.90;;;;;;5016612;28;20038;-81
2023/12/13 06:35:27;;;;;;;15.63;3.15;;;28.10;64.90;;;;;;5006484;28;20041;-81
2023/12/13 06:37:54;;;;;;;10.50;2.58;;;28.10;65.10;;;;;;5012075;28;20523;-80
2023/12/13 06:40:22;;;;;;;10.75;2.40;;;28.10;65.30;;;;;;5014449;28;20068;-83
2023/12/13 06:42:49;;;;;;;11.68;3.03;;;28.20;65.30;;;;;;5004752;28;20076;-81
2023/12/13 06:45:16;;;;;;;10.57;2.63;;;28.20;65.10;;;;;;4999066;28;20044;-80
2023/12/13 06:47:44;;;;;;;11.73;2.65;;;28.30;64.70;;;;;;5012536;28;20021;-82
2023/12/13 06:50:11;;;;;;;11.13;3.13;;;28.40;64.80;;;;;;5017269;28;20061;-80
2023/12/13 06:52:41;;;;;;;14.88;2.97;;;28.40;65.00;;;;;;5011342;28;20022;-79
2023/12/13 06:55:09;;;;;;;12.05;2.60;;;28.50;64.70;;;;;;5016015;28;20026;-79
2023/12/13 06:57:40;;;;;;;13.63;3.28;;;28.50;64.30;;;;;;5016694;28;20022;-78
2023/12/13 07:00:08;;;;;;;11.93;2.45;;;28.60;63.90;;;;;;5005929;28;20045;-80
2023/12/13 07:02:37;;;;;;;10.77;2.30;;;28.60;64.00;;;;;;5019455;28;20021;-80
2023/12/13 07:05:04;;;;;;;12.90;2.70;;;28.70;63.20;;;;;;5031698;28;20045;-81
2023/12/13 07:07:32;;;;;;;15.23;2.90;;;28.70;63.40;;;;;;5023235;28;20025;-81
2023/12/13 07:09:59;;;;;;;9.52;2.65;;;28.70;63.30;;;;;;5017436;28;20480;-80
2023/12/13 07:12:28;;;;;;;12.55;2.90;;;28.70;63.30;;;;;;4998425;28;20478;-80
2023/12/13 07:14:59;;;;;;;15.27;3.17;;;28.80;63.60;;;;;;5004719;28;20034;-80
2023/12/13 07:17:26;;;;;;;9.75;2.55;;;28.80;63.60;;;;;;5010188;28;20029;-80
2023/12/13 07:19:53;;;;;;;15.25;3.55;;;28.80;63.60;;;;;;5012835;28;20026;-78
2023/12/13 07:22:21;;;;;;;14.25;3.08;;;28.80;62.90;;;;;;5013250;28;20057;-80
2023/12/13 07:24:48;;;;;;;15.55;3.08;;;28.80;62.70;;;;;;5012871;28;20025;-87
2023/12/13 07:27:15;;;;;;;14.70;3.72;;;28.80;62.40;;;;;;5027632;28;20511;-80
2023/12/13 07:29:44;;;;;;;13.90;3.88;;;28.80;62.60;;;;;;5017021;28;20029;-77
2023/12/13 07:32:11;;;;;;;12.98;4.80;;;28.80;63.00;;;;;;5005671;28;20062;-77
2023/12/13 07:34:43;;;;;;;12.63;3.22;;;28.80;62.90;;;;;;5030742;28;20066;-78
2023/12/13 07:37:11;;;;;;;19.98;4.78;;;28.70;63.10;;;;;;5007271;28;20133;-78
2023/12/13 07:39:39;;;;;;;13.20;3.10;;;28.60;63.50;;;;;;5014321;28;20048;-86
2023/12/13 07:42:06;;;;;;;13.55;3.20;;;28.60;63.60;;;;;;5012588;28;20532;-76
2023/12/13 07:44:37;;;;;;;8.43;2.50;;;28.50;64.00;;;;;;5014241;28;20053;-79
2023/12/13 07:47:05;;;;;;;13.70;3.40;;;28.40;64.00;;;;;;5014274;28;20133;-78
2023/12/13 07:49:32;;;;;;;12.85;2.95;;;28.40;63.40;;;;;;5010684;28;20030;-88
2023/12/13 07:51:59;;;;;;;10.98;3.05;;;28.30;63.30;;;;;;5010774;28;20033;-83
2023/12/13 07:54:27;;;;;;;14.15;3.53;;;28.10;63.80;;;;;;5011011;28;20030;-76
2023/12/13 07:56:54;;;;;;;13.70;3.55;;;28.00;64.10;;;;;;5008326;28;20033;-82
2023/12/13 07:59:22;;;;;;;12.18;3.05;;;27.90;64.60;;;;;;5010417;28;20469;-85
2023/12/13 08:01:50;;;;;;;12.13;2.60;;;27.90;65.00;;;;;;5013675;28;20053;-77
2023/12/13 08:04:20;;;;;;;16.80;4.38;;;27.80;65.20;;;;;;5022834;28;20043;-80
2023/12/13 08:06:47;;;;;;;13.18;3.25;;;27.70;65.30;;;;;;5023435;28;20505;-81
2023/12/13 08:09:15;;;;;;;16.73;3.30;;;27.60;65.80;;;;;;5014609;28;20052;-85
2023/12/13 08:11:43;;;;;;;14.10;3.50;;;27.60;65.90;;;;;;5029129;28;20559;-84
2023/12/13 08:14:10;;;;;;;10.95;3.10;;;27.50;66.50;;;;;;5014875;28;20488;-78
2023/12/13 08:16:38;;;;;;;13.50;3.50;;;27.40;66.70;;;;;;5013339;28;20029;-78
2023/12/13 08:19:05;;;;;;;17.10;4.22;;;27.30;66.70;;;;;;5016312;28;20031;-81
2023/12/13 08:21:32;;;;;;;15.77;3.05;;;27.30;66.50;;;;;;5015440;28;20484;-82
2023/12/13 08:24:00;;;;;;;15.32;3.40;;;27.20;66.80;;;;;;5023070;28;20037;-85
2023/12/13 08:26:27;;;;;;;15.13;3.17;;;27.00;67.30;;;;;;5016068;28;20018;-84
2023/12/13 08:28:55;;;;;;;19.20;3.45;;;27.00;67.50;;;;;;5014178;28;20034;-78
2023/12/13 08:31:22;;;;;;;13.80;2.92;;;26.90;68.00;;;;;;5014909;28;20393;-77
2023/12/13 08:33:50;;;;;;;16.10;3.38;;;26.80;68.50;;;;;;5014374;28;20018;-84
2023/12/13 08:36:17;;;;;;;14.88;3.22;;;26.70;68.80;;;;;;5014585;28;20061;-80
2023/12/13 08:38:45;;;;;;;14.70;3.38;;;26.60;68.90;;;;;;5015566;28;20024;-81
2023/12/13 08:41:14;;;;;;;16.83;3.28;;;26.50;69.20;;;;;;5016840;28;20408;-81
2023/12/13 08:43:41;;;;;;;16.10;3.40;;;26.40;69.80;;;;;;5020135;28;20101;-78
2023/12/13 08:46:10;;;;;;;15.35;3.47;;;26.30;69.70;;;;;;5020832;28;20116;-77
2023/12/13 08:48:38;;;;;;;12.95;3.65;;;26.30;70.10;;;;;;5020957;28;20469;-78
2023/12/13 08:51:05;;;;;;;14.65;3.28;;;26.20;70.30;;;;;;5015091;28;20041;-80
2023/12/13 08:53:33;;;;;;;13.18;2.70;;;26.20;70.50;;;;;;5009620;28;20032;-77
2023/12/13 08:56:00;;;;;;;17.30;3.83;;;26.10;70.90;;;;;;5012749;28;20045;-78
2023/12/13 08:58:28;;;;;;;18.00;3.20;;;26.00;71.20;;;;;;5016964;28;20500;-77
2023/12/13 09:00:55;;;;;;;11.85;3.10;;;26.00;71.50;;;;;;5020429;28;20473;-85
2023/12/13 09:03:23;;;;;;;16.67;3.33;;;25.90;71.60;;;;;;5013815;28;20045;-82
2023/12/13 09:05:50;;;;;;;15.10;3.05;;;25.90;71.70;;;;;;5013455;28;20428;-78
2023/12/13 09:08:18;;;;;;;19.17;3.75;;;25.90;71.90;;;;;;5024928;28;20366;-85
2023/12/13 09:10:46;;;;;;;12.98;3.38;;;25.90;72.10;;;;;;5013956;28;20065;-77
2023/12/13 09:13:13;;;;;;;14.40;3.17;;;25.80;72.20;;;;;;5013457;28;20037;-79
2023/12/13 09:15:42;;;;;;;10.77;2.92;;;25.80;72.30;;;;;;5015310;28;20022;-79
2023/12/13 09:18:10;;;;;;;15.70;3.60;;;25.80;72.30;;;;;;5014923;28;20022;-79
2023/12/13 09:20:38;;;;;;;15.15;3.05;;;25.80;72.40;;;;;;5019518;28;20065;-79
2023/12/13 09:23:06;;;;;;;15.40;3.03;;;25.70;72.70;;;;;;5018471;28;20022;-80
2023/12/13 09:25:33;;;;;;;17.63;3.50;;;25.60;72.90;;;;;;5014936;28;20528;-84
2023/12/13 09:28:02;;;;;;;14.50;3.13;;;25.60;73.20;;;;;;5016811;28;20091;-78
2023/12/13 09:30:29;;;;;;;20.67;3.10;;;25.60;73.40;;;;;;5014361;28;20092;-78
2023/12/13 09:32:57;;;;;;;15.63;3.25;;;25.60;73.20;;;;;;5015353;28;20473;-81
2023/12/13 09:35:24;;;;;;;14.63;3.10;;;25.60;73.40;;;;;;5014417;28;20022;-86
2023/12/13 09:37:52;;;;;;;13.13;2.70;;;25.50;73.30;;;;;;5020342;28;20492;-84
2023/12/13 09:40:19;;;;;;;12.60;2.92;;;25.50;73.50;;;;;;5013102;28;20469;-77
2023/12/13 09:42:48;;;;;;;11.57;2.83;;;25.50;73.70;;;;;;5011393;28;20021;-77
2023/12/13 09:45:22;;;;;;;14.13;3.05;;;25.50;73.50;;;;;;5014477;28;20103;-88
2023/12/13 09:47:51;;;;;;;12.20;3.28;;;25.50;73.70;;;;;;5014103;28;20388;-89
2023/12/13 09:50:21;;;;;;;18.25;2.80;;;25.40;73.60;;;;;;5014099;28;20034;-76
2023/12/13 09:52:49;;;;;;;17.33;3.35;;;25.50;73.70;;;;;;5014911;28;20113;-87
2023/12/13 09:55:17;;;;;;;19.35;3.25;;;25.50;73.60;;;;;;5015115;28;20021;-90
2023/12/13 09:57:44;;;;;;;14.65;3.03;;;25.50;73.70;;;;;;5013926;28;20109;-78
2023/12/13 10:00:12;;;;;;;17.27;3.28;;;25.50;73.80;;;;;;5014938;28;20057;-81
2023/12/13 10:02:39;;;;;;;15.88;3.08;;;25.50;73.80;;;;;;5012403;28;20025;-82
2023/12/13 10:05:10;;;;;;;12.60;3.00;;;25.50;73.50;;;;;;5019534;28;20507;-82
2023/12/13 10:07:40;;;;;;;17.80;3.75;;;25.40;73.80;;;;;;5015238;28;20076;-85
2023/12/13 10:10:08;;;;;;;13.30;3.08;;;25.40;74.00;;;;;;5014821;28;20029;-87
2023/12/13 10:12:37;;;;;;;15.13;3.97;;;25.40;73.90;;;;;;5014162;28;20033;-80
2023/12/13 10:15:12;;;;;;;17.42;4.15;;;25.40;74.20;;;;;;5025846;28;20087;-80
2023/12/13 10:17:39;;;;;;;13.93;3.22;;;25.30;74.10;;;;;;5015878;28;20046;-78
2023/12/13 10:20:08;;;;;;;11.70;3.05;;;25.30;74.10;;;;;;5012972;28;20037;-76
2023/12/13 10:22:36;;;;;;;13.70;3.40;;;25.40;74.00;;;;;;5012156;28;20036;-74
2023/12/13 10:25:06;;;;;;;9.80;2.85;;;25.40;74.20;;;;;;5013350;28;20560;-82
2023/12/13 10:27:34;;;;;;;14.98;3.28;;;25.30;74.20;;;;;;5005690;28;20112;-75
2023/12/13 10:30:04;;;;;;;8.55;2.28;;;25.40;74.20;;;;;;5020200;28;20120;-76
2023/12/13 10:32:31;;;;;;;11.32;2.70;;;25.30;74.30;;;;;;5028062;28;20033;-76
2023/12/13 10:35:00;;;;;;;10.63;2.92;;;25.30;74.40;;;;;;5020052;28;20022;-76
2023/12/13 10:37:30;;;;;;;13.88;3.42;;;25.40;74.30;;;;;;5016813;28;21648;-76
2023/12/13 10:39:58;;;;;;;15.10;3.75;;;25.40;74.30;;;;;;5032564;28;20030;-80
2023/12/13 10:42:26;;;;;;;14.68;3.88;;;25.40;74.50;;;;;;5002218;28;20053;-77
2023/12/13 10:44:54;;;;;;;13.02;3.42;;;25.40;74.40;;;;;;5012887;28;20053;-77
2023/12/13 10:47:25;;;;;;;10.75;2.90;;;25.40;74.40;;;;;;5010659;28;20120;-76
2023/12/13 10:49:57;;;;;;;13.23;3.17;;;25.40;74.30;;;;;;5013469;28;20040;-78
2023/12/13 10:52:26;;;;;;;11.52;2.97;;;25.40;74.40;;;;;;5011241;28;20044;-75
2023/12/13 10:54:54;;;;;;;9.38;2.80;;;25.40;74.40;;;;;;5013302;28;20072;-76
2023/12/13 10:57:21;;;;;;;9.75;2.80;;;25.40;74.40;;;;;;5013273;28;20045;-75
2023/12/13 10:59:51;;;;;;;17.38;3.97;;;25.40;74.30;;;;;;5013021;28;20046;-75
2023/12/13 11:02:20;;;;;;;11.43;3.08;;;25.40;74.20;;;;;;5010721;28;20022;-75
2023/12/13 11:04:48;;;;;;;16.50;4.00;;;25.40;74.20;;;;;;5032271;28;20102;-75
2023/12/13 11:07:15;;;;;;;12.93;3.35;;;25.40;74.30;;;;;;5033078;28;20036;-76
2023/12/13 11:10:02;;;;;;;14.98;3.35;;;25.40;74.10;;;;;;5013702;28;20029;-76
2023/12/13 11:12:29;;;;;;;10.85;3.13;;;25.40;74.00;;;;;;5015608;28;20025;-77
2023/12/13 11:14:59;;;;;;;13.93;3.05;;;25.50;74.10;;;;;;5011099;28;20477;-76
2023/12/13 11:17:27;;;;;;;15.82;3.83;;;25.50;74.00;;;;;;5026479;28;20047;-75
2023/12/13 11:19:54;;;;;;;18.13;3.97;;;25.40;74.10;;;;;;5016451;28;20022;-80
2023/12/13 11:22:24;;;;;;;16.05;3.17;;;25.40;74.10;;;;;;5012782;28;20377;-76
2023/12/13 11:25:03;;;;;;;15.70;3.40;;;25.40;73.80;;;;;;5012699;28;20026;-75
2023/12/13 11:27:33;;;;;;;17.08;4.15;;;25.40;73.90;;;;;;5024471;28;20025;-81
2023/12/13 11:30:13;;;;;;;15.52;3.25;;;25.40;74.10;;;;;;5016134;28;20026;-75
2023/12/13 11:32:45;;;;;;;13.10;3.30;;;25.50;74.50;;;;;;5019340;28;20037;-75
2023/12/13 11:35:18;;;;;;;14.73;3.72;;;25.40;74.90;;;;;;5014439;28;20117;-76
2023/12/13 11:37:53;;;;;;;12.90;2.95;;;25.40;75.10;;;;;;5019907;28;20026;-76
2023/12/13 11:40:21;;;;;;;13.30;2.90;;;25.40;75.20;;;;;;5022524;28;20037;-75
2023/12/13 11:42:50;;;;;;;11.77;2.85;;;25.40;75.10;;;;;;5032408;28;20052;-74
2023/12/13 11:45:21;;;;;;;11.18;2.63;;;25.30;75.30;;;;;;5030998;28;20035;-75
2023/12/13 11:47:49;;;;;;;9.82;3.17;;;25.40;75.50;;;;;;5014607;28;20113;-76
2023/12/13 11:50:19;;;;;;;10.93;2.85;;;25.50;75.30;;;;;;5022127;28;20396;-75
2023/12/13 11:52:46;;;;;;;13.52;3.30;;;25.50;75.40;;;;;;5012995;28;20060;-76
2023/12/13 11:55:14;;;;;;;12.43;3.10;;;25.40;75.20;;;;;;5012702;28;20022;-77
2023/12/13 11:57:41;;;;;;;9.40;2.88;;;25.50;75.20;;;;;;5011179;28;20056;-76
2023/12/13 12:00:09;;;;;;;10.18;3.15;;;25.50;75.20;;;;;;5011637;28;20084;-78
2023/12/13 12:02:37;;;;;;;15.65;4.00;;;25.50;74.80;;;;;;5013992;28;20045;-74
2023/12/13 12:05:06;;;;;;;14.38;3.55;;;25.40;75.60;;;;;;5031767;28;20409;-75
2023/12/13 12:07:34;;;;;;;10.75;3.20;;;25.30;76.50;;;;;;5027488;28;20060;-75
2023/12/13 12:10:03;;;;;;;16.30;3.95;;;25.10;77.60;;;;;;5027874;28;20519;-74
2023/12/13 12:12:31;;;;;;;9.77;3.28;;;24.90;78.10;;;;;;5015381;28;20030;-74
2023/12/13 12:14:59;;;;;;;14.25;3.60;;;24.80;79.00;;;;;;5010766;28;20087;-74
2023/12/13 12:17:27;;;;;;;16.50;3.65;;;24.70;79.20;;;;;;5013104;28;20033;-74
2023/12/13 12:19:56;;;;;;;15.05;3.10;;;24.70;79.70;;;;;;5032006;28;20068;-77
2023/12/13 12:22:23;;;;;;;10.63;3.08;;;24.70;80.10;;;;;;5031174;28;20044;-77
2023/12/13 12:24:51;;;;;;;10.10;2.60;;;24.70;80.00;;;;;;5016199;28;20113;-77
2023/12/13 12:27:24;;;;;;;11.65;3.08;;;24.70;80.20;;;;;;5030146;28;20030;-75
2023/12/13 12:29:52;;;;;;;13.52;2.95;;;24.70;80.70;;;;;;5010395;28;20053;-74
2023/12/13 12:32:19;;;;;;;9.95;3.30;;;24.60;80.70;;;;;;5020363;28;20121;-76
2023/12/13 12:34:50;;;;;;;11.63;3.42;;;24.40;80.90;;;;;;5023497;28;20504;-76
2023/12/13 12:37:17;;;;;;;11.50;3.08;;;24.30;81.60;;;;;;5015710;28;20061;-77
2023/12/13 12:39:45;;;;;;;10.90;3.30;;;24.30;81.70;;;;;;5027014;28;20026;-75
2023/12/13 12:42:13;;;;;;;9.27;2.95;;;24.20;82.00;;;;;;5030168;28;20028;-74
2023/12/13 12:44:40;;;;;;;9.68;3.00;;;24.20;82.10;;;;;;5021391;28;20029;-74
2023/12/13 12:47:07;;;;;;;9.20;2.97;;;24.20;82.30;;;;;;5025988;28;20035;-74